Ulan Bator, Mongolia

7:31 PM ULAT on January 17, 2017 (GMT +0800)
Buyant-Ukhaa | | Change Station

Elev 4364 ft 47.84 °N, 106.77 °E | Updated 1 minute ago

Clear
Clear
-22 °F
Feels Like -22 °F
N
2
Wind Variable Wind from Variable

Today
High -- | Low -- °F
--% Chance of Precip.
Yesterday
High -- | Low -- °F
Precip. -- in
Pressure 30.21 in
Visibility 3.7 miles
Clouds
Dew Point -27 °F
Humidity 76%
Rainfall 0.25 in
Snow Depth Not available.
8:35 AM 5:29 PM
Waning Gibbous, 73% visible
METAR ZMUB 171130Z VRB01MPS 6000NW NSC M30/M33 Q1023 NOSIG RMK QFE659.4 68 NT
Pressure 30.21 in
Visibility 3.7 miles
Clouds
Dew Point -27 °F
Humidity 76%
Rainfall 0.25 in
Snow Depth Not available.
8:35 AM 5:29 PM
Waning Gibbous, 73% visible
METAR ZMUB 171130Z VRB01MPS 6000NW NSC M30/M33 Q1023 NOSIG RMK QFE659.4 68 NT

Get Your Daily Forecast Email!

Thanks for signing up!

Be on the lookout for a verification email in your inbox.

You'll start receiving the daily forecast at 8 AM.

×

10-Day Weather Forecast

No radar image for this location.
×

Almanac

Astronomy

Jan. 17, 2017 Rise Set
Actual Time
Civil Twilight
Nautical Twilight
Astronomical Twilight
Moon
Length of Visible Light
Length of Day
Tomorrow will be .
, % of the Moon is Illuminated

Today's Extremes

Country Highs Country Lows

Community

WunderPhotos

Upload Photos

1,962,540 photos uploaded!

WunderBlog® & News

Nearby

Air Quality

  Air Quality AQ Index Pollutant
Not available.

Snow Depth

Station Depth Elevation

Earthquake Activity

City Distance Mag. Time & Date
Minimum magnitude displayed is 2.5.

Coastal Water Temperatures

Place Temperature

Stations

Nearby Weather Stations

Station Location Temp. Windchill Dew Point Humidity Wind Precip. Elev Updated Type